ENKR

Kirkenes , Høybuktmoen Airport

Kirkenes, Norway
METAR ENKR 221750Z 35007KT 9999 FEW031 M00/M05 Q1012 RMK WIND 731FT 33010KT
Observed Flight Rules
Apr-22 @ 17:50 UTC (31 minutes ago) Visual Flight Rules
Wind Visibility Clouds
350° at 7 knots 10,000+ meters
  • Few at 3,100' AGL
Temperatures Readings
Current 0°C / 32°F
Dewpoint -5°C / 23°F
Humidity 69%
Altimeter 29.88" Hg
Pressure 1012 hPa
Elevation 91
METAR ENKR 221750Z 35007KT 9999 FEW031 M00/M05 Q1012 RMK WIND 731FT 33010KT
Observed Flight Rules
Apr-22 @ 17:50 UTC
(31 minutes ago)
VFR
Wind Visibility
350° at 7 knots 10,000+ meters
Clouds
  • Few at 3,100' AGL
Temperature Dewpoint
0°C / 32°F -5°C / 23°F
Humidity Altimeter Pressure
69% 29.88" Hg 1012 hPa